Time;durP1;ratioP1;P1;durP2;ratioP2;P2;SDS_P1;SDS_P2;PMS_P1;PMS_P2;Temp;Humidity;BMP_temperature;BMP_pressure;BME280_temperature;BME280_humidity;BME280_pressure;Samples;Min_cycle;Max_cycle;Signal;HPM_P1;HPM_P2
2021/12/23 00:02:17;;;;;;;;;;;;;;;-1.30;58.24;100959.31;4451791;32;34307;-55
2021/12/23 00:04:45;;;;;;;;;;;;;;;-1.39;58.50;100950.62;4450570;32;34726;-55
2021/12/23 00:07:12;;;;;;;;;;;;;;;-1.36;58.49;100946.31;4451465;32;35005;-55
2021/12/23 00:10:22;;;;;;;;;;;;;;;-1.45;58.37;100940.22;4450214;32;33053;-55
2021/12/23 00:12:30;;;;;;;;;;;;;;;-1.49;58.30;100942.78;4441298;32;34289;-55
2021/12/23 00:14:57;;;;;;;;;;;;;;;-1.51;58.51;100940.19;4451316;32;34272;-55
2021/12/23 00:17:52;;;;;;;;;;;;;;;-1.61;58.33;100935.78;4450245;32;35143;-55
2021/12/23 00:25:28;;;;;;;;;;;;;;;-1.55;58.46;100929.78;4450739;32;34884;-55
2021/12/23 00:27:55;;;;;;;;;;;;;;;-1.74;59.06;100921.91;4451439;32;33918;-55
2021/12/23 00:30:23;;;;;;;;;;;;;;;-1.62;58.46;100927.16;4450095;32;34407;-55
2021/12/23 00:32:50;;;;;;;;;;;;;;;-1.62;58.46;100921.13;4451241;32;35035;-55
2021/12/23 00:35:18;;;;;;;;;;;;;;;-1.72;58.59;100925.37;4448999;32;35423;-55
2021/12/23 00:37:47;;;;;;;;;;;;;;;-1.75;59.16;100921.91;4451417;32;33859;-55
2021/12/23 00:40:16;;;;;;;;;;;;;;;-1.66;58.62;100925.41;4450295;32;32834;-56
2021/12/23 00:42:43;;;;;;;;;;;;;;;-1.82;58.97;100915.81;4450891;32;34002;-55
2021/12/23 00:45:11;;;;;;;;;;;;;;;-1.59;58.09;100919.44;4450929;32;34835;-55
2021/12/23 00:47:38;;;;;;;;;;;;;;;-1.70;58.03;100915.03;4449730;32;34169;-55
2021/12/23 00:50:05;;;;;;;;;;;;;;;-1.69;58.02;100911.56;4451055;32;34121;-55
2021/12/23 00:52:36;;;;;;;;;;;;;;;-1.68;57.80;100911.59;4449570;32;34942;-55
2021/12/23 00:55:04;;;;;;;;;;;;;;;-1.75;57.98;100912.41;4451161;32;34793;-55
2021/12/23 00:57:36;;;;;;;;;;;;;;;-1.81;58.11;100910.63;4449888;32;33931;-56
2021/12/23 01:00:05;;;;;;;;;;;;;;;-1.83;57.90;100902.00;4450210;32;33476;-55
2021/12/23 01:02:32;;;;;;;;;;;;;;;-1.87;58.09;100908.00;4450782;32;34101;-55
2021/12/23 01:05:02;;;;;;;;;;;;;;;-1.92;58.13;100914.00;4449697;32;34264;-55
2021/12/23 01:07:29;;;;;;;;;;;;;;;-1.85;57.73;100908.03;4450679;32;34471;-55
2021/12/23 01:09:56;;;;;;;;;;;;;;;-2.02;58.30;100900.12;4449387;32;33312;-55
2021/12/23 01:12:29;;;;;;;;;;;;;;;-1.93;58.17;100892.44;4450724;32;34544;-55
2021/12/23 01:15:09;;;;;;;;;;;;;;;-2.10;58.21;100894.87;4449903;32;34452;-55
2021/12/23 01:20:29;;;;;;;;;;;;;;;-2.02;57.83;100893.22;4450474;32;33290;-55
2021/12/23 01:23:00;;;;;;;;;;;;;;;-2.06;57.83;100890.59;4435785;32;34121;-55
2021/12/23 01:25:28;;;;;;;;;;;;;;;-1.98;57.86;100888.94;4450373;32;34872;-55
2021/12/23 01:27:55;;;;;;;;;;;;;;;-2.18;58.50;100889.66;4450153;32;33736;-56
2021/12/23 01:30:22;;;;;;;;;;;;;;;-2.24;58.50;100887.03;4449592;32;33127;-55
2021/12/23 01:32:50;;;;;;;;;;;;;;;-2.16;58.18;100896.56;4450402;32;34256;-55
2021/12/23 01:35:18;;;;;;;;;;;;;;;-2.15;57.96;100887.94;4449194;32;34660;-55
2021/12/23 01:37:45;;;;;;;;;;;;;;;-2.30;58.54;100886.97;4450298;32;34045;-56
2021/12/23 01:40:13;;;;;;;;;;;;;;;-2.24;58.32;100884.44;4449019;32;34210;-55
2021/12/23 01:42:41;;;;;;;;;;;;;;;-2.22;58.13;100882.72;4450153;32;34382;-55
2021/12/23 01:45:09;;;;;;;;;;;;;;;-2.14;57.55;100884.50;4449640;32;35079;-55
2021/12/23 01:47:36;;;;;;;;;;;;;;;-2.22;57.83;100882.72;4450376;32;35085;-55
2021/12/23 01:50:03;;;;;;;;;;;;;;;-2.18;57.73;100874.13;4452507;32;32279;-55
2021/12/23 01:52:30;;;;;;;;;;;;;;;-2.28;58.00;100864.56;4451464;32;33792;-55
2021/12/23 01:54:58;;;;;;;;;;;;;;;-2.08;57.60;100874.19;4452391;32;34804;-55
2021/12/23 01:57:25;;;;;;;;;;;;;;;-2.12;57.09;100860.37;4451041;32;34380;-55
2021/12/23 01:59:52;;;;;;;;;;;;;;;-2.26;57.70;100860.28;4438509;32;33415;-55
2021/12/23 02:02:20;;;;;;;;;;;;;;;-2.29;57.68;100862.81;4451691;32;33852;-56
2021/12/23 02:04:48;;;;;;;;;;;;;;;-2.15;57.60;100862.06;4451679;32;35803;-55
2021/12/23 02:07:15;;;;;;;;;;;;;;;-2.50;58.10;100852.28;4452425;32;35211;-55
2021/12/23 02:09:42;;;;;;;;;;;;;;;-2.39;58.13;100858.44;4451001;32;34674;-56
2021/12/23 02:12:09;;;;;;;;;;;;;;;-2.46;58.11;100849.75;4452367;32;33693;-55
2021/12/23 02:14:36;;;;;;;;;;;;;;;-2.57;58.62;100860.00;4451085;32;35219;-55
2021/12/23 02:17:04;;;;;;;;;;;;;;;-2.59;58.79;100851.38;4452279;32;34026;-55
2021/12/23 02:19:31;;;;;;;;;;;;;;;-2.22;57.46;100851.66;4451552;32;33758;-55
2021/12/23 02:21:58;;;;;;;;;;;;;;;-2.34;57.57;100841.25;4451657;32;34975;-56
2021/12/23 02:24:26;;;;;;;;;;;;;;;-2.56;58.39;100845.34;4452330;32;34789;-55
2021/12/23 02:26:53;;;;;;;;;;;;;;;-2.50;58.17;100844.53;4450941;32;35051;-55
2021/12/23 02:29:20;;;;;;;;;;;;;;;-2.59;58.40;100837.56;4452278;32;34385;-55
2021/12/23 02:31:48;;;;;;;;;;;;;;;-2.42;58.06;100835.16;4450947;32;35020;-55
2021/12/23 02:34:16;;;;;;;;;;;;;;;-2.37;57.91;100828.25;4452257;32;34869;-55
2021/12/23 02:36:50;;;;;;;;;;;;;;;-2.30;57.34;100831.78;4451296;32;35007;-55
2021/12/23 02:39:18;;;;;;;;;;;;;;;-2.45;57.77;100822.19;4451599;32;33656;-55
2021/12/23 02:41:45;;;;;;;;;;;;;;;-2.40;58.15;100816.19;4452319;32;34160;-55
2021/12/23 02:44:13;;;;;;;;;;;;;;;-2.35;58.08;100823.97;4451083;32;33704;-55
2021/12/23 02:46:40;;;;;;;;;;;;;;;-2.45;58.18;100814.41;4452366;32;34172;-55
2021/12/23 02:49:07;;;;;;;;;;;;;;;-2.53;58.66;100813.50;4450834;32;33173;-55
2021/12/23 02:51:35;;;;;;;;;;;;;;;-2.25;58.03;100804.22;4452183;32;35041;-56
2021/12/23 02:54:03;;;;;;;;;;;;;;;-2.47;58.40;100804.06;4451368;32;35242;-55
2021/12/23 02:56:30;;;;;;;;;;;;;;;-2.32;58.12;100794.69;4451596;32;34425;-56
2021/12/23 02:58:57;;;;;;;;;;;;;;;-2.60;58.89;100803.09;4451694;32;33386;-55
2021/12/23 03:01:24;;;;;;;;;;;;;;;-2.72;59.17;100797.81;4450789;32;33878;-55
2021/12/23 03:03:52;;;;;;;;;;;;;;;-2.84;59.65;100793.41;4452071;32;33949;-55
2021/12/23 03:06:20;;;;;;;;;;;;;;;-2.57;58.75;100800.53;4450610;32;35139;-55
2021/12/23 03:08:56;;;;;;;;;;;;;;;-2.54;59.03;100796.22;4452101;32;32727;-55
2021/12/23 03:11:24;;;;;;;;;;;;;;;-2.49;59.02;100797.16;4451365;32;34909;-55
2021/12/23 03:13:51;;;;;;;;;;;;;;;-2.42;58.96;100792.03;4451285;32;34749;-55
2021/12/23 03:16:19;;;;;;;;;;;;;;;-2.45;58.82;100792.00;4451762;32;34331;-56
2021/12/23 03:18:47;;;;;;;;;;;;;;;-2.39;58.70;100791.19;4450532;32;34148;-55
2021/12/23 03:21:15;;;;;;;;;;;;;;;-2.21;58.42;100786.16;4451971;32;33715;-55
2021/12/23 03:23:42;;;;;;;;;;;;;;;-2.28;58.95;100793.84;4436583;32;34824;-56
2021/12/23 03:26:09;;;;;;;;;;;;;;;-2.43;59.33;100792.00;4452013;32;34443;-55
2021/12/23 03:28:36;;;;;;;;;;;;;;;-2.45;59.58;100780.78;4451255;32;34218;-56
2021/12/23 03:31:04;;;;;;;;;;;;;;;-2.26;58.63;100789.56;4451186;32;34801;-55
2021/12/23 03:33:31;;;;;;;;;;;;;;;-2.34;58.84;100781.75;4437765;32;34230;-55
2021/12/23 03:35:58;;;;;;;;;;;;;;;-2.39;59.07;100786.84;4450347;32;34190;-55
2021/12/23 03:38:25;;;;;;;;;;;;;;;-2.38;59.16;100780.00;4451751;32;34296;-55
2021/12/23 03:40:53;;;;;;;;;;;;;;;-2.23;58.62;100772.34;4450889;32;33755;-55
2021/12/23 03:43:21;;;;;;;;;;;;;;;-2.41;58.89;100777.38;4451750;32;34489;-55
2021/12/23 03:45:48;;;;;;;;;;;;;;;-2.00;57.63;100769.00;4451044;32;33911;-55
2021/12/23 03:48:16;;;;;;;;;;;;;;;-2.20;58.10;100774.91;4451060;32;34369;-56
2021/12/23 03:50:43;;;;;;;;;;;;;;;-2.37;59.32;100769.63;4451990;32;34725;-55
2021/12/23 03:53:12;;;;;;;;;;;;;;;-2.34;59.13;100763.63;4450318;32;35636;-55
2021/12/23 03:55:39;;;;;;;;;;;;;;;-2.24;59.17;100770.59;4451675;32;34830;-56
2021/12/23 03:58:07;;;;;;;;;;;;;;;-2.31;59.36;100778.28;4450240;32;33102;-55
2021/12/23 04:00:34;;;;;;;;;;;;;;;-2.20;59.21;100761.12;4451842;32;34399;-55
2021/12/23 04:03:02;;;;;;;;;;;;;;;-2.15;59.08;100763.72;4450824;32;35253;-55
2021/12/23 04:05:29;;;;;;;;;;;;;;;-2.33;59.57;100760.16;4450965;32;34327;-55
2021/12/23 04:07:56;;;;;;;;;;;;;;;-2.14;59.30;100757.72;4451621;32;33554;-55
2021/12/23 04:10:24;;;;;;;;;;;;;;;-2.07;59.00;100755.16;4449436;32;33860;-55
2021/12/23 04:12:51;;;;;;;;;;;;;;;-2.11;59.21;100753.44;4451420;32;35430;-55
2021/12/23 04:15:18;;;;;;;;;;;;;;;-2.07;59.16;100750.00;4450155;32;34175;-55
2021/12/23 04:17:46;;;;;;;;;;;;;;;-2.11;59.23;100749.94;4451709;32;33009;-55
2021/12/23 04:20:17;;;;;;;;;;;;;;;-2.08;59.22;100744.81;4450485;32;33732;-55
2021/12/23 04:22:44;;;;;;;;;;;;;;;-2.15;59.57;100743.91;4450733;32;34741;-55
2021/12/23 04:25:13;;;;;;;;;;;;;;;-2.20;59.52;100754.22;4451333;32;34869;-56
2021/12/23 04:27:40;;;;;;;;;;;;;;;-2.05;59.18;100752.59;4450059;32;34773;-55
2021/12/23 04:30:07;;;;;;;;;;;;;;;-2.18;59.29;100738.72;4451520;32;34167;-55
2021/12/23 04:32:35;;;;;;;;;;;;;;;-2.19;59.63;100739.56;4449931;32;35351;-55
2021/12/23 04:35:02;;;;;;;;;;;;;;;-2.20;59.16;100738.69;4451184;32;34475;-55
2021/12/23 04:37:30;;;;;;;;;;;;;;;-1.99;58.54;100726.75;4436359;32;33752;-56
2021/12/23 04:39:57;;;;;;;;;;;;;;;-2.10;58.97;100733.56;4450651;32;34110;-55
2021/12/23 04:42:24;;;;;;;;;;;;;;;-2.24;59.33;100736.94;4451140;32;35108;-55
2021/12/23 04:44:52;;;;;;;;;;;;;;;-2.21;59.38;100730.91;4450015;32;34581;-55
2021/12/23 04:47:20;;;;;;;;;;;;;;;-2.37;59.32;100724.78;4451051;32;34141;-55
2021/12/23 04:49:47;;;;;;;;;;;;;;;-1.98;58.30;100725.88;4449684;32;34257;-55
2021/12/23 04:52:14;;;;;;;;;;;;;;;-1.89;58.29;100728.50;4450965;32;34278;-55
2021/12/23 04:54:42;;;;;;;;;;;;;;;-2.29;59.64;100730.03;4450131;32;34734;-55
2021/12/23 04:57:09;;;;;;;;;;;;;;;-2.37;60.19;100727.38;4450583;32;33344;-55
2021/12/23 04:59:36;;;;;;;;;;;;;;;-2.22;59.99;100727.47;4450817;32;34860;-55
2021/12/23 05:02:04;;;;;;;;;;;;;;;-2.14;59.85;100726.66;4449539;32;34948;-55
2021/12/23 05:04:31;;;;;;;;;;;;;;;-2.25;60.12;100727.47;4451193;32;33857;-55
2021/12/23 05:06:58;;;;;;;;;;;;;;;-2.15;59.94;100730.09;4449477;32;33265;-55
2021/12/23 05:09:25;;;;;;;;;;;;;;;-2.07;59.56;100734.47;4450999;32;34825;-55
2021/12/23 05:11:52;;;;;;;;;;;;;;;-2.04;59.14;100729.28;4449770;32;35170;-55
2021/12/23 05:14:20;;;;;;;;;;;;;;;-2.26;59.78;100719.69;4450518;32;34541;-55
2021/12/23 05:16:47;;;;;;;;;;;;;;;-2.26;59.51;100725.72;4450527;32;33129;-56
2021/12/23 05:19:14;;;;;;;;;;;;;;;-2.14;59.35;100726.66;4449193;32;34220;-55
2021/12/23 05:21:41;;;;;;;;;;;;;;;-2.01;58.90;100718.09;4451726;32;34328;-55
2021/12/23 05:24:09;;;;;;;;;;;;;;;-1.78;58.22;100710.44;4451645;32;34276;-55
2021/12/23 05:26:36;;;;;;;;;;;;;;;-1.88;58.28;100712.13;4453002;32;33543;-55
2021/12/23 05:29:03;;;;;;;;;;;;;;;-2.12;59.13;100706.81;4451665;32;33696;-55
2021/12/23 05:31:31;;;;;;;;;;;;;;;-2.13;59.68;100715.44;4452362;32;35598;-55
2021/12/23 05:33:58;;;;;;;;;;;;;;;-2.15;59.65;100719.75;4452562;32;33958;-55
2021/12/23 05:36:25;;;;;;;;;;;;;;;-2.17;59.46;100714.59;4451478;32;32795;-55
2021/12/23 05:38:53;;;;;;;;;;;;;;;-2.17;59.67;100724.94;4452790;32;34360;-55
2021/12/23 05:41:22;;;;;;;;;;;;;;;-2.19;60.20;100734.38;4451346;32;34268;-55
2021/12/23 05:43:49;;;;;;;;;;;;;;;-2.27;60.40;100734.38;4452566;32;34382;-55
2021/12/23 05:46:17;;;;;;;;;;;;;;;-1.98;59.73;100734.53;4451589;32;32775;-55
2021/12/23 05:48:44;;;;;;;;;;;;;;;-1.87;59.61;100734.56;4452148;32;33973;-55
2021/12/23 05:51:11;;;;;;;;;;;;;;;-1.94;60.12;100729.34;4452237;32;35533;-55
2021/12/23 05:53:39;;;;;;;;;;;;;;;-2.10;61.10;100726.66;4451383;32;34501;-55
2021/12/23 05:56:06;;;;;;;;;;;;;;;-1.99;60.88;100718.97;4452516;32;33473;-55
2021/12/23 05:58:34;;;;;;;;;;;;;;;-1.82;60.51;100716.47;4451278;32;33635;-55
2021/12/23 06:01:01;;;;;;;;;;;;;;;-1.89;61.08;100720.72;4452509;32;34331;-56
2021/12/23 06:03:30;;;;;;;;;;;;;;;-1.78;60.38;100713.03;4451316;32;34853;-55
2021/12/23 06:05:57;;;;;;;;;;;;;;;-1.52;59.89;100710.50;4452148;32;34130;-55
2021/12/23 06:08:24;;;;;;;;;;;;;;;-1.46;59.74;100705.31;4452126;32;35112;-56
2021/12/23 06:10:51;;;;;;;;;;;;;;;-1.35;59.81;100707.09;4451440;32;34784;-55
2021/12/23 06:13:18;;;;;;;;;;;;;;;-1.40;60.08;100702.78;4452330;32;33822;-56
2021/12/23 06:15:45;;;;;;;;;;;;;;;-1.43;60.31;100705.34;4451035;32;34501;-55
2021/12/23 06:18:13;;;;;;;;;;;;;;;-1.24;59.98;100702.75;4452263;32;35279;-55
2021/12/23 06:20:40;;;;;;;;;;;;;;;-1.41;60.48;100702.75;4451015;32;35097;-55
2021/12/23 06:23:07;;;;;;;;;;;;;;;-1.31;60.59;100701.91;4452168;32;35008;-55
2021/12/23 06:25:35;;;;;;;;;;;;;;;-1.40;60.88;100705.37;4451907;32;33530;-56
2021/12/23 06:28:02;;;;;;;;;;;;;;;-1.23;60.52;100705.37;4451315;32;34319;-55
2021/12/23 06:30:29;;;;;;;;;;;;;;;-1.20;60.61;100710.56;4452285;32;34275;-56
2021/12/23 06:32:57;;;;;;;;;;;;;;;-1.06;60.14;100699.34;4450253;32;33991;-55
2021/12/23 06:35:28;;;;;;;;;;;;;;;-0.99;60.33;100701.06;4452231;32;33286;-56
2021/12/23 06:37:55;;;;;;;;;;;;;;;-0.87;60.01;100705.41;4450932;32;33857;-56
2021/12/23 06:40:23;;;;;;;;;;;;;;;-0.87;60.29;100706.25;4452005;32;35485;-55
2021/12/23 06:42:50;;;;;;;;;;;;;;;-0.74;59.69;100695.88;4452042;32;35213;-55
2021/12/23 06:45:18;;;;;;;;;;;;;;;-0.99;60.38;100706.25;4451086;32;33342;-55
2021/12/23 06:47:45;;;;;;;;;;;;;;;-1.06;59.83;100697.63;4452405;32;33749;-55
2021/12/23 06:50:12;;;;;;;;;;;;;;;-1.02;59.59;100706.25;4450848;32;34415;-55
2021/12/23 06:52:40;;;;;;;;;;;;;;;-1.05;59.21;100701.06;4452185;32;34978;-55
2021/12/23 06:55:08;;;;;;;;;;;;;;;-1.04;59.46;100695.03;4450900;32;33240;-55
2021/12/23 06:57:35;;;;;;;;;;;;;;;-1.23;59.99;100695.00;4452054;32;34060;-55
2021/12/23 07:00:04;;;;;;;;;;;;;;;-0.93;59.57;100706.28;4450862;32;34350;-54
2021/12/23 07:02:34;;;;;;;;;;;;;;;-0.97;59.47;100709.69;4450123;32;34414;-55
2021/12/23 07:05:01;;;;;;;;;;;;;;;-0.97;59.14;100708.84;4437949;32;33614;-54
2021/12/23 07:07:30;;;;;;;;;;;;;;;-0.74;59.04;100709.69;4450872;32;33443;-55
2021/12/23 07:09:57;;;;;;;;;;;;;;;-0.77;58.96;100709.72;4452038;32;35063;-55
2021/12/23 07:12:24;;;;;;;;;;;;;;;-1.07;59.36;100698.47;4450998;32;35128;-54
2021/12/23 07:14:51;;;;;;;;;;;;;;;-0.96;59.91;100701.06;4451690;32;33478;-54
2021/12/23 07:17:23;;;;;;;;;;;;;;;-0.85;59.53;100701.09;4451804;32;33525;-54
2021/12/23 07:19:50;;;;;;;;;;;;;;;-1.07;60.08;100701.06;4436578;32;35558;-54
2021/12/23 07:22:18;;;;;;;;;;;;;;;-1.03;61.34;100699.34;4452269;32;34221;-54
2021/12/23 07:24:45;;;;;;;;;;;;;;;-0.88;60.33;100693.28;4450605;32;32733;-55
2021/12/23 07:27:12;;;;;;;;;;;;;;;-1.05;59.93;100688.09;4451717;32;34868;-54
2021/12/23 07:29:39;;;;;;;;;;;;;;;-0.87;59.39;100689.84;4440943;32;34360;-54
2021/12/23 07:32:07;;;;;;;;;;;;;;;-0.84;59.65;100689.84;4431154;32;34170;-55
2021/12/23 07:34:34;;;;;;;;;;;;;;;-0.71;59.19;100688.09;4435141;32;32907;-55
2021/12/23 07:37:02;;;;;;;;;;;;;;;-0.96;59.96;100695.03;4435160;32;35389;-54
2021/12/23 07:39:29;;;;;;;;;;;;;;;-1.09;60.40;100697.59;4436330;32;34328;-55
2021/12/23 07:42:15;;;;;;;;;;;;;;;-0.66;59.22;100697.63;4434577;32;34113;-54
2021/12/23 07:44:43;;;;;;;;;;;;;;;-0.87;60.16;100695.03;4436374;32;34220;-54
2021/12/23 07:47:13;;;;;;;;;;;;;;;-0.75;59.83;100679.47;4435672;32;33758;-54
2021/12/23 07:49:41;;;;;;;;;;;;;;;-0.70;59.55;100682.91;4435610;32;34456;-55
2021/12/23 07:52:08;;;;;;;;;;;;;;;-0.63;59.34;100689.81;4436045;32;34904;-54
2021/12/23 07:54:36;;;;;;;;;;;;;;;-0.68;59.51;100685.50;4427003;32;33229;-54
2021/12/23 07:57:03;;;;;;;;;;;;;;;-0.53;59.23;100677.69;4451483;32;34430;-55
2021/12/23 07:59:31;;;;;;;;;;;;;;;-0.48;59.31;100668.16;4450129;32;35575;-54
2021/12/23 08:01:58;;;;;;;;;;;;;;;-0.43;59.24;100668.16;4448815;32;33712;-54
2021/12/23 08:04:26;;;;;;;;;;;;;;;-0.33;58.98;100664.69;4450815;32;33858;-55
2021/12/23 08:06:57;;;;;;;;;;;;;;;-0.48;59.19;100652.59;4450957;32;34037;-54
2021/12/23 08:09:24;;;;;;;;;;;;;;;-0.41;59.33;100653.44;4426431;32;795958;-54
2021/12/23 08:11:52;;;;;;;;;;;;;;;-0.27;59.07;100649.09;4446349;32;34700;-54
2021/12/23 08:14:19;;;;;;;;;;;;;;;-0.31;59.04;100654.28;4441569;32;33411;-55
2021/12/23 08:16:46;;;;;;;;;;;;;;;-0.28;58.89;100654.28;4434864;32;33752;-55
2021/12/23 08:19:14;;;;;;;;;;;;;;;-0.24;58.39;100649.06;4435829;32;34587;-54
2021/12/23 08:21:41;;;;;;;;;;;;;;;-0.22;58.01;100652.50;4435246;32;33877;-54
2021/12/23 08:24:08;;;;;;;;;;;;;;;-0.10;58.04;100648.13;4435058;32;33542;-54
2021/12/23 08:26:42;;;;;;;;;;;;;;;0.06;56.23;100649.81;4438783;32;34950;-56
2021/12/23 08:29:09;;;;;;;;;;;;;;;0.10;56.24;100651.53;4447974;32;34133;-55
2021/12/23 08:31:37;;;;;;;;;;;;;;;0.16;55.96;100642.84;4451310;32;34246;-55
2021/12/23 08:34:04;;;;;;;;;;;;;;;0.28;55.42;100640.16;4447923;32;32975;-54
2021/12/23 08:36:31;;;;;;;;;;;;;;;0.32;55.70;100634.06;4446418;32;34142;-54
2021/12/23 08:38:59;;;;;;;;;;;;;;;0.36;55.43;100640.97;4450153;32;34879;-55
2021/12/23 08:41:26;;;;;;;;;;;;;;;0.38;54.53;100640.97;4446129;32;35002;-54
2021/12/23 08:43:53;;;;;;;;;;;;;;;0.30;54.43;100642.75;4442454;32;33142;-56
2021/12/23 08:46:21;;;;;;;;;;;;;;;0.35;54.53;100646.16;4435364;32;34917;-55
2021/12/23 08:48:48;;;;;;;;;;;;;;;0.52;54.58;100643.47;4435239;32;34335;-54
2021/12/23 08:51:15;;;;;;;;;;;;;;;0.50;54.42;100645.22;4433748;32;34300;-54
2021/12/23 08:53:45;;;;;;;;;;;;;;;0.57;54.00;100645.16;4439841;32;33103;-54
2021/12/23 08:56:13;;;;;;;;;;;;;;;0.75;54.02;100641.56;4450132;32;35267;-55
2021/12/23 08:58:42;;;;;;;;;;;;;;;0.67;54.58;100632.12;4451797;32;34836;-54
2021/12/23 09:01:11;;;;;;;;;;;;;;;0.64;54.24;100632.12;4452756;32;34135;-55
2021/12/23 09:03:38;;;;;;;;;;;;;;;0.39;53.87;100640.97;4451057;32;34191;-54
2021/12/23 09:06:05;;;;;;;;;;;;;;;0.68;53.39;100639.03;4452205;32;34198;-54
2021/12/23 09:08:33;;;;;;;;;;;;;;;0.72;52.66;100632.94;4451300;32;35623;-55
2021/12/23 09:11:00;;;;;;;;;;;;;;;0.62;52.76;100623.47;4452308;32;33800;-55
2021/12/23 09:13:28;;;;;;;;;;;;;;;0.86;51.96;100607.69;4451713;32;33002;-55
2021/12/23 09:15:56;;;;;;;;;;;;;;;0.93;52.26;100608.47;4451328;32;34442;-55
2021/12/23 09:18:23;;;;;;;;;;;;;;;1.08;51.43;100608.34;4446344;32;35931;-55
2021/12/23 09:20:51;;;;;;;;;;;;;;;1.14;50.72;100608.31;4450200;32;34299;-55
2021/12/23 09:23:19;;;;;;;;;;;;;;;0.91;50.50;100598.12;4452289;32;33922;-55
2021/12/23 09:25:47;;;;;;;;;;;;;;;0.97;51.03;100595.44;4443746;32;35014;-55
2021/12/23 09:33:46;;;;;;;;;;;;;;;1.00;49.37;100578.94;4446688;32;33371;-55
2021/12/23 09:36:15;;;;;;;;;;;;;;;1.20;49.21;100570.06;4441503;32;33635;-55
2021/12/23 09:38:42;;;;;;;;;;;;;;;1.15;49.12;100567.53;4439993;32;34641;-55
2021/12/23 09:41:11;;;;;;;;;;;;;;;1.43;49.10;100572.44;4437688;32;35047;-54
2021/12/23 09:43:39;;;;;;;;;;;;;;;1.50;48.30;100576.69;4451021;32;33902;-55
2021/12/23 09:46:08;;;;;;;;;;;;;;;1.35;48.49;100569.91;4451262;32;34249;-55
2021/12/23 09:48:38;;;;;;;;;;;;;;;1.38;47.46;100570.75;4452452;32;35662;-55
2021/12/23 09:51:06;;;;;;;;;;;;;;;1.18;48.06;100567.50;4450405;32;33905;-55
2021/12/23 09:53:34;;;;;;;;;;;;;;;1.44;48.00;100561.16;4451675;32;33216;-55
2021/12/23 09:56:01;;;;;;;;;;;;;;;1.37;48.23;100562.94;4450618;32;34324;-55
2021/12/23 09:58:29;;;;;;;;;;;;;;;1.47;47.90;100574.12;4451409;32;35138;-55
2021/12/23 10:00:56;;;;;;;;;;;;;;;1.60;47.73;100567.88;4451265;32;34522;-55
2021/12/23 10:03:23;;;;;;;;;;;;;;;1.77;47.84;100557.25;4440088;32;33251;-55
2021/12/23 10:05:51;;;;;;;;;;;;;;;1.39;47.24;100542.97;4450760;32;33676;-55
2021/12/23 10:08:18;;;;;;;;;;;;;;;1.46;47.86;100539.41;4445150;32;34108;-55
2021/12/23 10:38:13;;;;;;;;;;;;;;;2.26;44.66;100493.16;4435778;32;35169;-55
2021/12/23 10:40:44;;;;;;;;;;;;;;;2.50;44.27;100478.84;4449671;32;34348;-55
2021/12/23 10:43:26;;;;;;;;;;;;;;;2.28;45.33;100474.00;4449292;32;33971;-55
2021/12/23 10:45:56;;;;;;;;;;;;;;;2.35;45.14;100473.00;4451210;32;33426;-55
2021/12/23 10:48:25;;;;;;;;;;;;;;;2.51;44.07;100462.31;4450946;32;34285;-55
2021/12/23 10:51:04;;;;;;;;;;;;;;;2.76;43.04;100454.91;4436739;32;34263;-55
2021/12/23 10:59:05;;;;;;;;;;;;;;;2.51;44.16;100436.25;4451898;32;34246;-54
2021/12/23 11:01:33;;;;;;;;;;;;;;;2.85;44.03;100446.91;4450486;32;34781;-55
2021/12/23 11:04:02;;;;;;;;;;;;;;;2.75;43.94;100440.13;4450326;32;35280;-55
2021/12/23 11:06:39;;;;;;;;;;;;;;;2.64;43.82;100424.69;4451452;32;33782;-55
2021/12/23 11:42:14;;;;;;;;;;;;;;;3.35;41.77;100344.94;4451267;32;34462;-55
2021/12/23 11:44:41;;;;;;;;;;;;;;;2.94;42.68;100352.78;4447417;32;35042;-55
2021/12/23 11:47:13;;;;;;;;;;;;;;;3.08;42.31;100343.81;4450211;32;34508;-55
2021/12/23 11:49:44;;;;;;;;;;;;;;;2.99;42.39;100334.44;4450795;32;34051;-55
2021/12/23 11:52:11;;;;;;;;;;;;;;;3.17;42.03;100322.72;4449935;32;34303;-55
2021/12/23 11:54:39;;;;;;;;;;;;;;;3.24;41.65;100326.94;4451087;32;35385;-55
2021/12/23 11:57:11;;;;;;;;;;;;;;;3.16;41.29;100326.25;4444680;32;34030;-55
2021/12/23 11:59:40;;;;;;;;;;;;;;;3.22;41.50;100312.19;4436271;32;33525;-55
2021/12/23 12:02:17;;;;;;;;;;;;;;;3.26;41.46;100322.53;4446102;32;34712;-55
2021/12/23 12:04:45;;;;;;;;;;;;;;;3.23;42.30;100312.16;4449077;32;36062;-56
2021/12/23 12:07:14;;;;;;;;;;;;;;;3.32;41.59;100301.50;4450149;32;33992;-55
2021/12/23 12:10:11;;;;;;;;;;;;;;;3.32;41.62;100300.66;4434377;32;33038;-55
2021/12/23 12:12:57;;;;;;;;;;;;;;;3.01;41.14;100295.28;4428988;32;34222;-56
2021/12/23 12:15:34;;;;;;;;;;;;;;;2.96;41.98;100297.97;4450430;32;35362;-55
2021/12/23 12:18:02;;;;;;;;;;;;;;;3.60;44.81;100287.75;4442764;32;34604;-55
2021/12/23 12:20:36;;;;;;;;;;;;;;;3.47;40.58;100284.63;4450924;32;33309;-55
2021/12/23 12:23:03;;;;;;;;;;;;;;;3.36;40.61;100273.56;4434874;32;35039;-55
2021/12/23 12:25:30;;;;;;;;;;;;;;;3.19;40.78;100280.94;4443013;32;34755;-55
2021/12/23 12:27:57;;;;;;;;;;;;;;;3.50;39.55;100283.69;4450013;32;35209;-55
2021/12/23 12:30:38;;;;;;;;;;;;;;;3.26;40.40;100266.88;4449205;32;33294;-55
2021/12/23 12:33:08;;;;;;;;;;;;;;;3.54;40.02;100267.03;4449055;32;33837;-55
2021/12/23 12:35:35;;;;;;;;;;;;;;;3.11;40.63;100270.69;4434572;32;35194;-55
2021/12/23 12:38:11;;;;;;;;;;;;;;;3.38;45.63;100268.31;4435503;32;35984;-55
2021/12/23 12:40:57;;;;;;;;;;;;;;;3.82;54.41;100263.69;4434703;32;33298;-55
2021/12/23 12:43:54;;;;;;;;;;;;;;;3.66;41.31;100264.09;4446156;32;33816;-55
2021/12/23 12:46:34;;;;;;;;;;;;;;;3.79;40.97;100258.56;4445644;32;34760;-55
2021/12/23 12:49:12;;;;;;;;;;;;;;;3.74;40.31;100269.12;4449596;32;33260;-56
2021/12/23 12:51:41;;;;;;;;;;;;;;;3.63;40.55;100265.97;4449596;32;33251;-55
2021/12/23 12:54:14;;;;;;;;;;;;;;;3.80;38.90;100255.03;4450706;32;34765;-55
2021/12/23 12:57:03;;;;;;;;;;;;;;;3.56;39.28;100241.72;4448631;32;35148;-55
2021/12/23 12:59:31;;;;;;;;;;;;;;;3.45;39.77;100238.53;4450795;32;35766;-55
2021/12/23 13:01:59;;;;;;;;;;;;;;;3.54;39.85;100230.47;4449452;32;34399;-55
2021/12/23 13:04:26;;;;;;;;;;;;;;;3.27;39.80;100226.81;4435270;32;34856;-55
2021/12/23 13:06:54;;;;;;;;;;;;;;;3.46;39.37;100215.00;4450359;32;34630;-55
2021/12/23 13:09:30;;;;;;;;;;;;;;;3.55;39.48;100216.53;4434836;32;33828;-56
2021/12/23 13:12:04;;;;;;;;;;;;;;;3.29;39.76;100220.63;4449944;32;33049;-55
2021/12/23 13:15:08;;;;;;;;;;;;;;;3.25;40.15;100210.31;4446251;32;34129;-55
2021/12/23 13:17:45;;;;;;;;;;;;;;;3.32;40.67;100215.34;4448268;32;34823;-56
2021/12/23 13:20:12;;;;;;;;;;;;;;;3.38;39.99;100206.50;4449931;32;34430;-55
2021/12/23 13:22:40;;;;;;;;;;;;;;;3.25;39.95;100202.50;4448866;32;33712;-55
2021/12/23 13:25:08;;;;;;;;;;;;;;;3.30;40.02;100204.09;4449997;32;33649;-55
2021/12/23 13:27:40;;;;;;;;;;;;;;;3.42;39.59;100200.31;4448407;32;34009;-56
2021/12/23 13:30:08;;;;;;;;;;;;;;;3.44;39.18;100197.69;4449539;32;35207;-55
2021/12/23 13:32:36;;;;;;;;;;;;;;;3.36;40.05;100197.88;4449703;32;33869;-55
2021/12/23 13:35:11;;;;;;;;;;;;;;;3.58;38.99;100198.16;4448721;32;34982;-55
2021/12/23 13:37:44;;;;;;;;;;;;;;;3.51;39.14;100196.63;4450011;32;34745;-55
2021/12/23 13:40:32;;;;;;;;;;;;;;;3.38;39.09;100184.78;4448533;32;33802;-56
2021/12/23 13:42:59;;;;;;;;;;;;;;;3.15;39.95;100168.78;4450578;32;33372;-55
2021/12/23 13:45:27;;;;;;;;;;;;;;;3.17;39.20;100168.75;4451967;32;34248;-55
2021/12/23 13:47:55;;;;;;;;;;;;;;;3.18;40.09;100170.50;4450628;32;34601;-55
2021/12/23 13:50:23;;;;;;;;;;;;;;;3.35;39.97;100173.53;4451941;32;34099;-55
2021/12/23 13:52:51;;;;;;;;;;;;;;;3.40;39.86;100180.38;4450747;32;34036;-55
2021/12/23 13:55:25;;;;;;;;;;;;;;;3.26;39.89;100176.37;4452203;32;34842;-56
2021/12/23 13:57:55;;;;;;;;;;;;;;;3.39;39.46;100171.66;4450994;32;35167;-55
2021/12/23 14:00:31;;;;;;;;;;;;;;;3.40;39.70;100162.09;4450933;32;35734;-55
2021/12/23 14:03:09;;;;;;;;;;;;;;;3.27;39.47;100149.34;4444416;32;33730;-55
2021/12/23 14:05:40;;;;;;;;;;;;;;;3.24;39.87;100157.28;4450519;32;33995;-55
2021/12/23 14:08:08;;;;;;;;;;;;;;;3.19;40.11;100150.47;4451886;32;34662;-55
2021/12/23 14:10:38;;;;;;;;;;;;;;;3.15;39.88;100179.22;4450810;32;34076;-55